Time;durP1;ratioP1;P1;durP2;ratioP2;P2;SDS_P1;SDS_P2;PMS_P1;PMS_P2;Temp;Humidity;BMP_temperature;BMP_pressure;BME280_temperature;BME280_humidity;BME280_pressure;Samples;Min_cycle;Max_cycle;Signal;HPM_P1;HPM_P2
2021/03/12 00:00:15;;;;;;;18.67;2.80;;;6.50;99.90;;;;;;5072005;28;20059;-87
2021/03/12 00:02:42;;;;;;;11.10;1.50;;;6.50;99.90;;;;;;5106767;28;20048;-86
2021/03/12 00:05:09;;;;;;;11.98;2.17;;;6.50;99.90;;;;;;5076558;28;20040;-87
2021/03/12 00:07:35;;;;;;;13.57;2.10;;;6.50;99.90;;;;;;5083577;28;20051;-87
2021/03/12 00:10:00;;;;;;;18.38;2.83;;;6.50;99.90;;;;;;5086518;28;20499;-86
2021/03/12 00:12:26;;;;;;;11.63;2.13;;;6.60;99.90;;;;;;5071154;28;20036;-86
2021/03/12 00:14:51;;;;;;;12.63;1.73;;;6.60;99.90;;;;;;5093176;28;20055;-89
2021/03/12 00:17:17;;;;;;;13.68;2.15;;;6.60;99.90;;;;;;5069226;28;20110;-90
2021/03/12 00:19:42;;;;;;;9.77;2.00;;;6.60;99.90;;;;;;5064092;28;20021;-86
2021/03/12 00:22:10;;;;;;;15.13;2.33;;;6.60;99.90;;;;;;5108189;28;20497;-87
2021/03/12 00:24:35;;;;;;;13.98;2.08;;;6.70;99.90;;;;;;5070501;28;20025;-90
2021/03/12 00:27:01;;;;;;;9.20;1.45;;;6.70;99.90;;;;;;5063994;28;20027;-87
2021/03/12 00:29:27;;;;;;;12.55;1.88;;;6.70;99.90;;;;;;5079573;28;20032;-87
2021/03/12 00:31:53;;;;;;;10.23;2.17;;;6.70;99.90;;;;;;5068168;28;20035;-86
2021/03/12 00:34:18;;;;;;;11.57;1.70;;;6.70;99.90;;;;;;5067153;28;20036;-88
2021/03/12 00:36:44;;;;;;;11.60;2.40;;;6.70;99.90;;;;;;5085068;28;20464;-87
2021/03/12 00:39:09;;;;;;;13.45;1.98;;;6.70;99.90;;;;;;5085514;28;20100;-88
2021/03/12 00:41:35;;;;;;;10.00;1.73;;;6.70;99.90;;;;;;5065529;28;20020;-87
2021/03/12 00:44:00;;;;;;;12.27;1.85;;;6.70;99.90;;;;;;5068222;28;20070;-86
2021/03/12 00:46:26;;;;;;;10.88;1.23;;;6.70;99.90;;;;;;5090336;28;20032;-85
2021/03/12 00:48:51;;;;;;;7.55;1.67;;;6.70;99.90;;;;;;5069239;28;20425;-86
2021/03/12 00:51:18;;;;;;;13.52;1.80;;;6.70;99.90;;;;;;5101957;28;20020;-87
2021/03/12 00:53:44;;;;;;;6.97;1.67;;;6.70;99.90;;;;;;5072227;28;20020;-88
2021/03/12 00:56:09;;;;;;;13.80;1.65;;;6.70;99.90;;;;;;5068628;28;20016;-87
2021/03/12 00:58:35;;;;;;;15.52;3.03;;;6.70;99.90;;;;;;5066613;28;20021;-87
2021/03/12 01:01:00;;;;;;;9.63;1.83;;;6.70;99.90;;;;;;5072259;28;20027;-89
2021/03/12 01:03:26;;;;;;;14.30;2.63;;;6.70;99.90;;;;;;5074574;28;20111;-88
2021/03/12 01:05:51;;;;;;;7.20;1.55;;;6.70;99.90;;;;;;5069971;28;20094;-89
2021/03/12 01:08:17;;;;;;;10.05;2.40;;;6.70;99.90;;;;;;5070153;28;20025;-87
2021/03/12 01:10:43;;;;;;;12.48;1.75;;;6.70;99.90;;;;;;5068255;28;20017;-87
2021/03/12 01:13:08;;;;;;;13.90;2.17;;;6.70;99.90;;;;;;5087164;28;20012;-87
2021/03/12 01:15:34;;;;;;;9.80;2.08;;;6.60;99.90;;;;;;5065695;28;20017;-88
2021/03/12 01:18:00;;;;;;;11.65;1.58;;;6.60;99.90;;;;;;5083162;28;20027;-88
2021/03/12 01:20:29;;;;;;;10.65;2.35;;;6.60;99.90;;;;;;5071421;28;20020;-85
2021/03/12 01:22:57;;;;;;;13.27;3.42;;;6.60;99.90;;;;;;5087688;28;20087;-88
2021/03/12 01:25:26;;;;;;;15.00;2.35;;;6.60;99.90;;;;;;5070450;28;20035;-88
2021/03/12 01:27:51;;;;;;;14.50;2.30;;;6.50;99.90;;;;;;5092008;28;20024;-86
2021/03/12 01:30:27;;;;;;;15.32;2.00;;;6.50;99.90;;;;;;5083980;28;20021;-88
2021/03/12 01:32:53;;;;;;;11.43;2.35;;;6.60;99.90;;;;;;5069398;28;20399;-87
2021/03/12 01:35:19;;;;;;;15.27;2.30;;;6.50;99.90;;;;;;5062373;28;20509;-88
2021/03/12 01:37:45;;;;;;;10.13;1.70;;;6.50;99.90;;;;;;5070808;28;20073;-85
2021/03/12 01:40:15;;;;;;;13.25;2.13;;;6.50;99.90;;;;;;5089998;28;20017;-86
2021/03/12 01:42:41;;;;;;;12.55;2.05;;;6.50;99.90;;;;;;5066166;28;20364;-89
2021/03/12 01:45:10;;;;;;;15.20;1.70;;;6.50;99.90;;;;;;5067307;28;20495;-88
2021/03/12 01:47:36;;;;;;;13.88;2.67;;;6.40;99.90;;;;;;5075090;28;20023;-87
2021/03/12 01:50:04;;;;;;;12.15;2.83;;;6.50;99.90;;;;;;5085151;28;20020;-87
2021/03/12 01:52:30;;;;;;;32.38;3.85;;;6.50;99.90;;;;;;5106048;28;20429;-87
2021/03/12 01:54:55;;;;;;;16.33;2.30;;;6.50;99.90;;;;;;5067538;28;20021;-88
2021/03/12 01:57:21;;;;;;;16.80;3.00;;;6.50;99.90;;;;;;5072786;28;20082;-89
2021/03/12 01:59:46;;;;;;;18.75;2.60;;;6.50;99.90;;;;;;5091001;28;20028;-89
2021/03/12 02:02:12;;;;;;;15.25;3.25;;;6.50;99.90;;;;;;5067651;28;20357;-90
2021/03/12 02:04:37;;;;;;;11.93;1.70;;;6.50;99.90;;;;;;5071655;28;20016;-88
2021/03/12 02:07:03;;;;;;;14.15;2.30;;;6.50;99.90;;;;;;5101113;28;20051;-90
2021/03/12 02:09:29;;;;;;;10.95;2.22;;;6.50;99.90;;;;;;5073175;28;20020;-89
2021/03/12 02:12:14;;;;;;;13.35;2.40;;;6.50;99.90;;;;;;5077534;28;20049;-89
2021/03/12 02:14:48;;;;;;;12.35;2.47;;;6.50;99.90;;;;;;5068146;28;20031;-87
2021/03/12 02:17:19;;;;;;;15.23;2.60;;;6.50;99.90;;;;;;5091052;28;20021;-90
2021/03/12 02:20:06;;;;;;;13.38;2.17;;;6.50;99.90;;;;;;5066423;28;20020;-86
2021/03/12 02:22:35;;;;;;;11.68;2.35;;;6.50;99.90;;;;;;5072338;28;20429;-87
2021/03/12 02:25:06;;;;;;;8.57;1.73;;;6.50;99.90;;;;;;5064680;28;20012;-87
2021/03/12 02:27:33;;;;;;;8.40;2.42;;;6.40;99.90;;;;;;5063994;28;20016;-88
2021/03/12 02:30:00;;;;;;;18.52;2.60;;;6.40;99.90;;;;;;5069103;28;20055;-88
2021/03/12 02:32:31;;;;;;;14.20;2.25;;;6.40;99.90;;;;;;5072042;28;20053;-90
2021/03/12 02:35:01;;;;;;;15.98;2.90;;;6.40;99.90;;;;;;5060776;28;20082;-88
2021/03/12 02:37:27;;;;;;;11.20;2.05;;;6.40;99.90;;;;;;5085518;28;20032;-88
2021/03/12 02:39:59;;;;;;;14.50;2.25;;;6.30;99.90;;;;;;5087269;28;20126;-88
2021/03/12 02:42:26;;;;;;;12.02;2.63;;;6.30;99.90;;;;;;5091215;28;20051;-87
2021/03/12 02:44:54;;;;;;;10.07;1.80;;;6.30;99.90;;;;;;5075780;28;20031;-88
2021/03/12 02:47:27;;;;;;;9.95;1.88;;;6.30;99.90;;;;;;5069095;28;20380;-89
2021/03/12 02:49:53;;;;;;;15.38;2.10;;;6.30;99.90;;;;;;5078459;28;20107;-87
2021/03/12 02:52:19;;;;;;;10.45;2.20;;;6.30;99.90;;;;;;5094082;28;20020;-89
2021/03/12 02:54:47;;;;;;;14.95;2.75;;;6.30;99.90;;;;;;5106448;28;20020;-89
2021/03/12 02:57:14;;;;;;;19.95;2.42;;;6.30;99.90;;;;;;5105558;28;20062;-89
2021/03/12 02:59:41;;;;;;;11.98;2.33;;;6.30;99.90;;;;;;5065854;28;20036;-87
2021/03/12 03:02:09;;;;;;;15.75;2.90;;;6.30;99.90;;;;;;5067456;28;20016;-87
2021/03/12 03:04:39;;;;;;;17.55;1.88;;;6.30;99.90;;;;;;5089110;28;20607;-88
2021/03/12 03:07:07;;;;;;;;;;;6.20;99.90;;;;;;5071235;28;20123;-87
2021/03/12 03:09:34;;;;;;;15.63;1.98;;;6.20;99.90;;;;;;5071775;28;20374;-87
2021/03/12 03:11:59;;;;;;;9.70;1.30;;;6.20;99.90;;;;;;5070420;28;20021;-88
2021/03/12 03:14:29;;;;;;;13.98;2.20;;;6.20;99.90;;;;;;5068535;28;20020;-88
2021/03/12 03:16:55;;;;;;;12.57;1.90;;;6.20;99.90;;;;;;5067728;28;20395;-90
2021/03/12 03:19:22;;;;;;;18.75;2.00;;;6.30;99.90;;;;;;5061861;28;20036;-90
2021/03/12 03:21:49;;;;;;;14.18;1.70;;;6.20;99.90;;;;;;5087254;28;20027;-88
2021/03/12 03:24:14;;;;;;;14.48;2.83;;;6.20;99.90;;;;;;5071364;28;20027;-87
2021/03/12 03:26:40;;;;;;;13.65;1.65;;;6.10;99.90;;;;;;5093359;28;20463;-88
2021/03/12 03:29:06;;;;;;;13.48;2.13;;;6.10;99.90;;;;;;5083128;28;20133;-89
2021/03/12 03:31:32;;;;;;;11.25;1.88;;;6.00;99.90;;;;;;5068186;28;20103;-89
2021/03/12 03:33:57;;;;;;;18.08;2.72;;;5.90;99.90;;;;;;5069215;28;20048;-88
2021/03/12 03:36:23;;;;;;;16.73;1.90;;;5.80;99.90;;;;;;5084869;28;20047;-87
2021/03/12 03:38:49;;;;;;;10.65;2.33;;;5.80;99.90;;;;;;5068305;28;20012;-90
2021/03/12 03:41:16;;;;;;;11.80;1.70;;;5.70;99.90;;;;;;5075948;28;20103;-90
2021/03/12 03:43:46;;;;;;;12.13;1.70;;;5.70;99.90;;;;;;5071442;28;20054;-86
2021/03/12 03:46:12;;;;;;;18.63;1.88;;;5.70;99.90;;;;;;5077602;28;20060;-88
2021/03/12 03:48:39;;;;;;;18.83;2.03;;;5.60;99.90;;;;;;5072135;28;20031;-88
2021/03/12 03:51:08;;;;;;;8.82;1.48;;;5.60;99.90;;;;;;5092349;28;20387;-89
2021/03/12 03:53:35;;;;;;;14.40;1.83;;;5.60;99.90;;;;;;5082684;28;20024;-88
2021/03/12 03:56:02;;;;;;;14.57;2.40;;;5.50;99.90;;;;;;5097200;28;20299;-88
2021/03/12 03:58:29;;;;;;;11.77;2.20;;;5.50;99.90;;;;;;5073482;28;20020;-87
2021/03/12 04:00:55;;;;;;;8.00;1.67;;;5.50;99.90;;;;;;5067054;28;20027;-88
2021/03/12 04:03:22;;;;;;;12.90;2.17;;;5.50;99.90;;;;;;5108163;28;20437;-87
2021/03/12 04:05:48;;;;;;;13.05;1.60;;;5.50;99.90;;;;;;5088825;28;20036;-88
2021/03/12 04:08:13;;;;;;;13.27;1.67;;;5.40;99.90;;;;;;5084402;28;20391;-88
2021/03/12 04:10:40;;;;;;;19.33;2.17;;;5.40;99.90;;;;;;5071598;28;20020;-87
2021/03/12 04:13:06;;;;;;;12.07;1.98;;;5.40;99.90;;;;;;5103899;28;20073;-89
2021/03/12 04:15:32;;;;;;;14.52;2.03;;;5.40;99.90;;;;;;5083980;28;20031;-88
2021/03/12 04:17:57;;;;;;;14.93;2.15;;;5.40;99.90;;;;;;5089059;28;20099;-87
2021/03/12 04:20:23;;;;;;;10.93;2.13;;;5.40;99.90;;;;;;5067875;28;20020;-87
2021/03/12 04:22:51;;;;;;;13.65;2.88;;;5.40;99.90;;;;;;5070203;28;20019;-88
2021/03/12 04:25:17;;;;;;;8.88;1.58;;;5.40;99.90;;;;;;5084817;28;20013;-88
2021/03/12 04:27:43;;;;;;;9.40;1.40;;;5.30;99.90;;;;;;5082602;28;20020;-87
2021/03/12 04:30:10;;;;;;;15.68;2.20;;;5.30;99.90;;;;;;5066991;28;20033;-88
2021/03/12 04:32:37;;;;;;;11.27;2.08;;;5.20;99.90;;;;;;5099314;28;20032;-89
2021/03/12 04:35:08;;;;;;;9.43;1.75;;;5.20;99.90;;;;;;5068351;28;20020;-88
2021/03/12 04:37:35;;;;;;;13.15;2.42;;;5.20;99.90;;;;;;5101649;28;20498;-89
2021/03/12 04:40:02;;;;;;;10.27;2.03;;;5.20;99.90;;;;;;5104493;28;20073;-88
2021/03/12 04:42:29;;;;;;;14.25;2.28;;;5.20;99.90;;;;;;5069479;28;20025;-89
2021/03/12 04:44:56;;;;;;;14.13;2.55;;;5.20;99.90;;;;;;5068409;28;20020;-88
2021/03/12 04:47:22;;;;;;;13.98;2.30;;;5.10;99.90;;;;;;5085316;28;20475;-89
2021/03/12 04:49:47;;;;;;;11.65;2.40;;;5.10;99.90;;;;;;5083330;28;20024;-88
2021/03/12 04:52:13;;;;;;;10.32;2.28;;;5.10;99.90;;;;;;5089628;28;20034;-89
2021/03/12 04:54:41;;;;;;;14.32;1.95;;;5.10;99.90;;;;;;5073145;28;20467;-90
2021/03/12 04:57:08;;;;;;;9.25;1.50;;;5.10;99.90;;;;;;5069707;28;20027;-89
2021/03/12 04:59:34;;;;;;;12.82;2.20;;;5.00;99.90;;;;;;5072498;28;20476;-90
2021/03/12 05:02:00;;;;;;;9.30;1.83;;;5.00;99.90;;;;;;5063279;28;20166;-90
2021/03/12 05:04:26;;;;;;;9.85;2.00;;;5.00;99.90;;;;;;5088853;28;20028;-89
2021/03/12 05:06:53;;;;;;;15.52;2.60;;;5.00;99.90;;;;;;5085740;28;20392;-90
2021/03/12 05:09:18;;;;;;;18.20;2.80;;;5.00;99.90;;;;;;5066407;28;20024;-91
2021/03/12 05:11:44;;;;;;;13.77;2.50;;;4.90;99.90;;;;;;5067835;28;20029;-89
2021/03/12 05:14:14;;;;;;;14.70;2.33;;;4.90;99.90;;;;;;5080861;28;20023;-92
2021/03/12 05:16:40;;;;;;;14.73;2.60;;;4.90;99.90;;;;;;5067546;28;20025;-88
2021/03/12 05:19:06;;;;;;;11.57;2.20;;;4.90;99.90;;;;;;5061357;28;20025;-89
2021/03/12 05:21:32;;;;;;;14.88;2.30;;;4.90;99.90;;;;;;5077948;28;20020;-90
2021/03/12 05:23:58;;;;;;;15.13;2.45;;;4.90;99.90;;;;;;5069024;28;20023;-89
2021/03/12 05:26:24;;;;;;;17.85;2.25;;;4.90;99.90;;;;;;5064857;28;20031;-88
2021/03/12 05:28:53;;;;;;;15.73;2.55;;;4.90;99.90;;;;;;5079955;28;20464;-89
2021/03/12 05:31:21;;;;;;;15.52;3.22;;;4.90;99.90;;;;;;5083287;28;20489;-89
2021/03/12 05:33:47;;;;;;;14.18;2.47;;;4.90;99.90;;;;;;5065861;28;20074;-86
2021/03/12 05:36:13;;;;;;;12.18;2.20;;;4.80;99.90;;;;;;5074965;28;20051;-89
2021/03/12 05:38:38;;;;;;;14.48;2.25;;;4.80;99.90;;;;;;5066775;28;20023;-88
2021/03/12 05:41:05;;;;;;;12.52;2.45;;;4.80;99.90;;;;;;5081544;28;20016;-89
2021/03/12 05:43:31;;;;;;;14.35;3.00;;;4.80;99.90;;;;;;5084326;28;20441;-87
2021/03/12 05:45:59;;;;;;;14.10;2.92;;;4.80;99.90;;;;;;5069301;28;20028;-89
2021/03/12 05:48:25;;;;;;;20.65;3.45;;;4.80;99.90;;;;;;5068178;28;20024;-87
2021/03/12 05:50:51;;;;;;;14.75;3.53;;;4.80;99.90;;;;;;5070972;28;20341;-90
2021/03/12 05:53:18;;;;;;;15.77;2.30;;;4.80;99.90;;;;;;5070057;28;20483;-89
2021/03/12 05:55:43;;;;;;;15.15;2.92;;;4.80;99.90;;;;;;5067018;28;20020;-90
2021/03/12 05:58:09;;;;;;;11.48;2.33;;;4.90;99.90;;;;;;5071821;28;20032;-89
2021/03/12 06:00:35;;;;;;;18.02;2.88;;;4.90;99.90;;;;;;5063081;28;20036;-90
2021/03/12 06:03:00;;;;;;;13.85;2.72;;;4.80;99.90;;;;;;5070990;28;20376;-90
2021/03/12 06:05:26;;;;;;;10.15;2.58;;;4.90;99.90;;;;;;5065507;28;20033;-87
2021/03/12 06:07:52;;;;;;;23.33;3.30;;;4.90;99.90;;;;;;5065328;28;20029;-89
2021/03/12 06:10:17;;;;;;;15.23;3.53;;;4.90;99.90;;;;;;5086883;28;20035;-91
2021/03/12 06:12:43;;;;;;;17.35;3.17;;;4.80;99.90;;;;;;5077664;28;20444;-90
2021/03/12 06:15:09;;;;;;;13.55;3.10;;;4.90;99.90;;;;;;5070216;28;20489;-90
2021/03/12 06:17:45;;;;;;;14.35;2.75;;;4.90;99.90;;;;;;5063689;28;20035;-89
2021/03/12 06:20:16;;;;;;;14.27;2.42;;;4.90;99.90;;;;;;5066017;28;20024;-88
2021/03/12 06:22:53;;;;;;;18.27;3.25;;;4.90;99.90;;;;;;5065031;28;20484;-89
2021/03/12 06:25:23;;;;;;;15.98;3.30;;;4.90;99.90;;;;;;5063841;28;20048;-89
2021/03/12 06:27:52;;;;;;;13.88;2.53;;;4.90;99.90;;;;;;5070292;28;20538;-87
2021/03/12 06:30:22;;;;;;;16.08;3.25;;;4.80;99.90;;;;;;5090401;28;20020;-88
2021/03/12 06:32:50;;;;;;;17.60;3.13;;;4.80;99.90;;;;;;5087349;28;20027;-90
2021/03/12 06:35:33;;;;;;;14.65;2.33;;;4.80;99.90;;;;;;5074742;28;20430;-90
2021/03/12 06:38:06;;;;;;;15.93;2.20;;;4.90;99.90;;;;;;5079135;28;20028;-89
2021/03/12 06:40:32;;;;;;;14.95;2.70;;;4.80;99.90;;;;;;5096398;28;20480;-91
2021/03/12 06:43:01;;;;;;;14.48;2.53;;;4.80;99.90;;;;;;5079100;28;20048;-89
2021/03/12 06:45:27;;;;;;;15.63;2.95;;;4.80;99.90;;;;;;5096897;28;20031;-91
2021/03/12 06:48:12;;;;;;;13.40;2.30;;;4.90;99.90;;;;;;5097107;28;20145;-89
2021/03/12 06:50:58;;;;;;;23.48;3.20;;;4.80;99.90;;;;;;5082129;28;20076;-90
2021/03/12 06:53:32;;;;;;;14.73;2.10;;;4.90;99.90;;;;;;5109666;28;20064;-89
2021/03/12 06:56:01;;;;;;;15.60;2.72;;;4.90;99.90;;;;;;5099738;28;20026;-89
2021/03/12 06:58:27;;;;;;;18.65;3.33;;;4.90;99.90;;;;;;5099484;28;20068;-90
2021/03/12 07:00:53;;;;;;;16.58;2.40;;;4.90;99.90;;;;;;5099094;28;20028;-90
2021/03/12 07:03:25;;;;;;;17.02;2.65;;;4.90;99.90;;;;;;5117623;28;20030;-88
2021/03/12 07:06:17;;;;;;;21.92;3.67;;;4.90;99.90;;;;;;5098568;28;20683;-89
2021/03/12 07:08:48;;;;;;;18.60;2.97;;;5.00;99.90;;;;;;5098992;28;20436;-87
2021/03/12 07:11:25;;;;;;;23.52;2.90;;;5.00;99.90;;;;;;5098947;28;20502;-88
2021/03/12 07:13:57;;;;;;;15.13;3.42;;;5.10;99.90;;;;;;5099016;28;20020;-89
2021/03/12 07:16:24;;;;;;;19.50;4.47;;;5.10;99.90;;;;;;5098669;28;20034;-86
2021/03/12 07:18:50;;;;;;;12.90;1.95;;;5.20;99.90;;;;;;5098716;28;20055;-90
2021/03/12 07:21:18;;;;;;;17.15;2.83;;;5.20;99.90;;;;;;5117345;28;20163;-90
2021/03/12 07:23:48;;;;;;;24.95;4.93;;;5.30;99.90;;;;;;5118066;28;20533;-88
2021/03/12 07:26:16;;;;;;;15.80;2.92;;;5.30;99.90;;;;;;5117010;28;20113;-91
2021/03/12 07:28:44;;;;;;;18.25;2.72;;;5.40;99.90;;;;;;5100134;28;20100;-90
2021/03/12 07:31:16;;;;;;;18.50;3.38;;;5.50;99.90;;;;;;5118183;28;20020;-89
2021/03/12 07:33:48;;;;;;;20.33;3.28;;;5.60;99.90;;;;;;5114617;28;20076;-89
2021/03/12 07:36:20;;;;;;;13.52;2.47;;;5.60;99.90;;;;;;5090188;28;20067;-90
2021/03/12 07:38:45;;;;;;;27.63;3.38;;;5.70;99.90;;;;;;5095556;28;20027;-90
2021/03/12 07:41:12;;;;;;;18.15;2.47;;;5.70;99.90;;;;;;5116923;28;20035;-92
2021/03/12 07:43:41;;;;;;;21.98;4.05;;;5.80;99.90;;;;;;5098005;28;20028;-91
2021/03/12 07:46:08;;;;;;;30.15;3.85;;;5.90;99.90;;;;;;5098101;28;20027;-89
2021/03/12 07:48:35;;;;;;;16.00;2.65;;;5.90;99.90;;;;;;5097795;28;20116;-90
2021/03/12 07:51:09;;;;;;;18.30;2.70;;;6.00;99.90;;;;;;5092067;28;20020;-90
2021/03/12 07:53:43;;;;;;;17.13;3.28;;;6.00;99.90;;;;;;5104529;28;20102;-89
2021/03/12 07:56:11;;;;;;;19.15;3.85;;;6.10;99.90;;;;;;5115118;28;20485;-90
2021/03/12 07:58:56;;;;;;;13.00;2.28;;;6.00;99.90;;;;;;5085687;28;20035;-90
2021/03/12 08:01:23;;;;;;;20.02;3.38;;;6.10;99.90;;;;;;5087558;28;20023;-91
2021/03/12 08:03:51;;;;;;;23.00;3.10;;;6.10;99.90;;;;;;5101902;28;20019;-87
2021/03/12 08:06:17;;;;;;;30.80;4.40;;;6.10;99.90;;;;;;5081730;28;20035;-89
2021/03/12 08:08:43;;;;;;;18.13;2.97;;;6.20;99.90;;;;;;5084193;28;20028;-87
2021/03/12 08:11:29;;;;;;;21.40;3.55;;;6.30;99.90;;;;;;5076147;28;20024;-86
2021/03/12 08:14:18;;;;;;;19.38;4.25;;;6.40;99.90;;;;;;5072216;28;20032;-86
2021/03/12 08:17:00;;;;;;;22.63;3.92;;;6.40;99.90;;;;;;5083330;28;20035;-89
2021/03/12 08:19:40;;;;;;;23.33;3.20;;;6.50;99.90;;;;;;5084461;28;20020;-88
2021/03/12 08:22:24;;;;;;;;;;;6.60;99.90;;;;;;5084519;28;20031;-88
2021/03/12 08:24:52;;;;;;;25.70;3.85;;;6.60;99.90;;;;;;5084229;28;19911;-84
2021/03/12 08:27:37;;;;;;;15.90;3.35;;;6.70;99.90;;;;;;5072114;28;20032;-83
2021/03/12 08:30:05;;;;;;;21.33;3.33;;;6.80;99.90;;;;;;5072973;28;20056;-84
2021/03/12 08:32:41;;;;;;;20.88;4.40;;;6.90;99.90;;;;;;5073604;28;20029;-93
2021/03/12 08:35:33;;;;;;;19.40;3.50;;;6.90;99.90;;;;;;5076082;28;20024;-91
2021/03/12 08:38:28;;;;;;;26.88;4.47;;;7.00;99.90;;;;;;5074417;28;20067;-91
2021/03/12 08:41:26;;;;;;;27.98;3.67;;;7.00;99.90;;;;;;5046107;28;20033;-89
2021/03/12 08:43:54;;;;;;;24.90;3.60;;;7.00;99.90;;;;;;5071271;28;20032;-84
2021/03/12 08:46:26;;;;;;;19.02;4.13;;;7.10;99.90;;;;;;5071160;28;20029;-87
2021/03/12 08:48:54;;;;;;;21.58;3.60;;;7.20;99.90;;;;;;5071151;28;20504;-86
2021/03/12 08:51:26;;;;;;;24.52;4.75;;;7.30;99.90;;;;;;5056031;28;20032;-85
2021/03/12 08:53:57;;;;;;;21.10;3.65;;;7.40;99.90;;;;;;5072248;28;20035;-85
2021/03/12 08:56:28;;;;;;;24.15;4.95;;;7.50;99.90;;;;;;5070927;28;20032;-86
2021/03/12 08:58:55;;;;;;;26.35;5.00;;;7.50;99.90;;;;;;5078746;28;20021;-86
2021/03/12 09:01:26;;;;;;;31.67;5.20;;;7.40;99.90;;;;;;5082252;28;20027;-85
2021/03/12 09:03:54;;;;;;;21.98;4.25;;;7.50;99.90;;;;;;5080180;28;20021;-85
2021/03/12 09:06:30;;;;;;;31.50;4.55;;;7.70;99.90;;;;;;5082063;28;20048;-87
2021/03/12 09:08:55;;;;;;;21.52;5.35;;;7.80;99.70;;;;;;5080904;28;20059;-87
2021/03/12 09:11:23;;;;;;;21.20;4.10;;;7.80;99.50;;;;;;5083798;28;20412;-86
2021/03/12 09:13:50;;;;;;;17.77;4.28;;;7.90;99.50;;;;;;5081755;28;20039;-89
2021/03/12 09:16:24;;;;;;;20.60;3.72;;;7.90;99.10;;;;;;5082225;28;20040;-87
2021/03/12 09:18:53;;;;;;;29.98;4.20;;;8.00;98.90;;;;;;5084245;28;20070;-90
2021/03/12 09:21:20;;;;;;;21.85;4.75;;;8.10;98.10;;;;;;5083453;28;20078;-90
2021/03/12 09:23:53;;;;;;;20.92;4.63;;;8.10;97.90;;;;;;5080957;28;20020;-90
2021/03/12 09:26:22;;;;;;;25.95;3.70;;;8.20;98.40;;;;;;5096848;28;20028;-92
2021/03/12 09:28:51;;;;;;;20.95;4.18;;;8.30;98.80;;;;;;5081941;28;20024;-90
2021/03/12 09:31:18;;;;;;;21.65;4.05;;;8.50;97.70;;;;;;5106034;28;20078;-89
2021/03/12 09:33:53;;;;;;;20.40;3.25;;;8.80;98.00;;;;;;5078985;28;20085;-89
2021/03/12 09:36:30;;;;;;;31.80;4.72;;;8.90;96.70;;;;;;5104154;28;20028;-88
2021/03/12 09:39:26;;;;;;;25.40;4.15;;;8.90;97.00;;;;;;5080184;28;20027;-90
2021/03/12 09:42:03;;;;;;;20.75;3.95;;;9.00;96.90;;;;;;5074520;28;20109;-89
2021/03/12 09:44:30;;;;;;;19.55;3.53;;;9.00;96.30;;;;;;5083542;28;20036;-89
2021/03/12 09:46:58;;;;;;;21.83;4.03;;;9.00;95.50;;;;;;5080668;28;20353;-88
2021/03/12 09:49:26;;;;;;;25.02;5.53;;;8.90;95.40;;;;;;5081409;28;20111;-88
2021/03/12 09:51:55;;;;;;;18.75;3.72;;;8.80;95.00;;;;;;5085035;28;20025;-91
2021/03/12 09:54:24;;;;;;;18.07;2.93;;;8.70;95.00;;;;;;5075930;28;20044;-88
2021/03/12 09:56:51;;;;;;;20.08;3.75;;;8.70;95.40;;;;;;5072376;28;20025;-90
2021/03/12 09:59:19;;;;;;;20.10;4.18;;;8.80;95.70;;;;;;5082354;28;20044;-92
2021/03/12 10:01:45;;;;;;;16.50;2.80;;;9.10;95.50;;;;;;5081906;28;20028;-87
2021/03/12 10:04:30;;;;;;;21.15;3.63;;;9.20;93.90;;;;;;5079485;28;20380;-89
2021/03/12 10:07:00;;;;;;;21.48;3.90;;;9.50;93.80;;;;;;5075723;28;20049;-88
2021/03/12 10:09:28;;;;;;;23.20;4.45;;;9.50;93.80;;;;;;5074947;28;20024;-89
2021/03/12 10:11:55;;;;;;;21.30;4.28;;;9.50;93.60;;;;;;5084518;28;20039;-86
2021/03/12 10:14:44;;;;;;;24.08;4.45;;;9.30;94.10;;;;;;5083852;28;20051;-90
2021/03/12 10:17:25;;;;;;;22.25;3.10;;;9.20;93.50;;;;;;5084695;28;20028;-87
2021/03/12 10:20:05;;;;;;;17.90;2.90;;;8.90;93.80;;;;;;5081376;28;20468;-88
2021/03/12 10:22:43;;;;;;;19.58;3.83;;;8.80;93.80;;;;;;5108392;28;20017;-89
2021/03/12 10:25:26;;;;;;;20.50;3.10;;;8.60;94.10;;;;;;5083370;28;20058;-89
2021/03/12 10:28:20;;;;;;;28.67;3.50;;;8.50;95.20;;;;;;5084407;28;20032;-90
2021/03/12 10:30:49;;;;;;;19.63;3.35;;;8.40;95.70;;;;;;5110214;28;20055;-90
2021/03/12 10:33:19;;;;;;;26.98;4.13;;;8.30;96.50;;;;;;5086604;28;20016;-87
2021/03/12 10:35:56;;;;;;;18.33;3.33;;;8.10;96.90;;;;;;5111846;28;20046;-89
2021/03/12 10:38:22;;;;;;;23.80;4.03;;;8.00;97.70;;;;;;5085293;28;20032;-88
2021/03/12 10:41:04;;;;;;;19.35;3.70;;;7.90;99.20;;;;;;5083912;28;20116;-89
2021/03/12 10:43:32;;;;;;;19.73;3.13;;;7.80;99.40;;;;;;5098615;28;20094;-87
2021/03/12 10:46:00;;;;;;;17.95;3.45;;;7.60;99.90;;;;;;5084903;28;20020;-86
2021/03/12 10:48:28;;;;;;;15.93;3.60;;;7.50;99.90;;;;;;5082000;28;20441;-88
2021/03/12 10:50:56;;;;;;;24.33;4.18;;;7.40;99.90;;;;;;5109899;28;20028;-88
2021/03/12 10:53:23;;;;;;;20.70;3.40;;;7.30;99.90;;;;;;5082760;28;20119;-86
2021/03/12 10:56:00;;;;;;;24.08;4.93;;;7.10;99.90;;;;;;5084395;28;20020;-84
2021/03/12 10:58:34;;;;;;;22.88;3.45;;;6.90;99.90;;;;;;5084818;28;20035;-84
2021/03/12 11:01:06;;;;;;;22.48;3.90;;;6.90;99.90;;;;;;5082485;28;20104;-83
2021/03/12 11:03:32;;;;;;;20.50;5.35;;;6.80;99.90;;;;;;5106549;28;20541;-84
2021/03/12 11:05:57;;;;;;;18.20;3.92;;;6.80;99.90;;;;;;5082497;28;20044;-84
2021/03/12 11:08:25;;;;;;;19.80;3.90;;;6.80;99.90;;;;;;5083806;28;20016;-84
2021/03/12 11:10:50;;;;;;;26.23;5.07;;;6.80;99.90;;;;;;5081411;28;20373;-86
2021/03/12 11:13:17;;;;;;;23.23;4.70;;;6.90;99.90;;;;;;5084886;28;20020;-85
2021/03/12 11:15:43;;;;;;;21.23;4.75;;;6.90;99.90;;;;;;5087482;28;20054;-87
2021/03/12 11:18:08;;;;;;;26.38;4.43;;;7.00;99.90;;;;;;5093370;28;20055;-85
2021/03/12 11:20:34;;;;;;;22.08;4.47;;;7.10;99.90;;;;;;5095063;28;20020;-85
2021/03/12 11:23:00;;;;;;;21.85;4.50;;;7.20;99.90;;;;;;5084969;28;20028;-86
2021/03/12 11:25:26;;;;;;;23.77;4.38;;;7.30;99.90;;;;;;5093129;28;20062;-87
2021/03/12 11:27:51;;;;;;;22.38;5.70;;;7.70;99.90;;;;;;5094426;28;20052;-86
2021/03/12 11:30:19;;;;;;;17.50;3.97;;;8.00;99.90;;;;;;5093704;28;20028;-87
2021/03/12 11:32:46;;;;;;;20.15;3.55;;;8.20;99.90;;;;;;5094103;28;20481;-87
2021/03/12 11:35:13;;;;;;;16.42;3.60;;;8.40;99.90;;;;;;5093759;28;20042;-87
2021/03/12 11:37:39;;;;;;;16.67;3.28;;;8.50;99.90;;;;;;5094923;28;20028;-87
2021/03/12 11:40:06;;;;;;;19.75;3.42;;;8.60;99.90;;;;;;5094932;28;20024;-87
2021/03/12 11:42:33;;;;;;;14.75;4.07;;;8.70;98.50;;;;;;5094064;28;20430;-87
2021/03/12 11:44:59;;;;;;;17.85;3.40;;;8.90;98.60;;;;;;5088726;28;20464;-86
2021/03/12 11:47:26;;;;;;;14.55;3.40;;;9.00;97.10;;;;;;5063093;28;20032;-87
2021/03/12 11:49:52;;;;;;;16.40;2.65;;;9.00;96.60;;;;;;5095019;28;20476;-88
2021/03/12 11:52:17;;;;;;;12.63;3.33;;;9.00;96.30;;;;;;5063426;28;20025;-87
2021/03/12 11:54:43;;;;;;;18.73;3.45;;;8.90;95.90;;;;;;5067128;28;20087;-85
2021/03/12 11:57:09;;;;;;;15.50;2.83;;;9.10;96.00;;;;;;5063837;28;20476;-86
2021/03/12 11:59:35;;;;;;;15.60;3.67;;;9.20;96.00;;;;;;5058695;28;20074;-88
2021/03/12 12:02:02;;;;;;;12.23;2.92;;;9.40;95.20;;;;;;5070420;28;20032;-88
2021/03/12 12:04:27;;;;;;;21.52;3.20;;;9.30;95.00;;;;;;5064556;28;20050;-87
2021/03/12 12:06:54;;;;;;;14.57;3.15;;;9.20;94.70;;;;;;5079844;28;20122;-87
2021/03/12 12:09:20;;;;;;;17.35;2.67;;;9.10;95.00;;;;;;5062700;28;20037;-86
2021/03/12 12:11:45;;;;;;;13.23;2.28;;;9.00;94.90;;;;;;5063928;28;20039;-85
2021/03/12 12:14:11;;;;;;;15.27;2.83;;;9.00;94.90;;;;;;5065740;28;20126;-84
2021/03/12 12:16:37;;;;;;;12.10;2.67;;;9.10;95.00;;;;;;5095781;28;20533;-87
2021/03/12 12:19:07;;;;;;;17.67;2.00;;;9.10;94.50;;;;;;5056453;28;20025;-84
2021/03/12 12:21:33;;;;;;;10.15;2.33;;;9.10;94.50;;;;;;5075244;28;20104;-85
2021/03/12 12:23:59;;;;;;;16.45;3.50;;;9.10;95.00;;;;;;5095068;28;20048;-86
2021/03/12 12:26:24;;;;;;;10.27;1.80;;;9.10;94.00;;;;;;5055170;28;20043;-86
2021/03/12 12:28:50;;;;;;;15.38;2.30;;;9.00;94.30;;;;;;5052092;28;20032;-88
2021/03/12 12:31:15;;;;;;;13.27;2.40;;;9.00;94.10;;;;;;5084406;28;20040;-85
2021/03/12 12:33:44;;;;;;;10.80;1.95;;;8.90;94.10;;;;;;5074025;28;20034;-88
2021/03/12 12:36:10;;;;;;;11.23;2.17;;;8.90;94.50;;;;;;5063226;28;20040;-85
2021/03/12 12:38:35;;;;;;;10.18;2.88;;;8.90;94.60;;;;;;5075835;28;20118;-87
2021/03/12 12:41:01;;;;;;;15.00;2.72;;;8.90;95.60;;;;;;5085936;28;20104;-85
2021/03/12 12:43:26;;;;;;;12.52;2.22;;;8.80;96.80;;;;;;5068692;28;20357;-89
2021/03/12 12:45:52;;;;;;;23.23;3.50;;;8.70;96.40;;;;;;5066749;28;20070;-87
2021/03/12 12:48:18;;;;;;;17.17;2.42;;;8.70;96.20;;;;;;5063270;28;20028;-85
2021/03/12 12:50:43;;;;;;;17.73;2.58;;;8.80;96.40;;;;;;5062684;28;20127;-86
2021/03/12 12:53:15;;;;;;;18.48;3.30;;;8.90;96.00;;;;;;5080379;28;20738;-86
2021/03/12 12:55:41;;;;;;;9.88;2.40;;;8.90;95.10;;;;;;5065627;28;20055;-86